Time,TemperatureF,DewpointF,PressureIn,WindDirection,WindDirectionDegrees,WindSpeedMPH,WindSpeedGustMPH,Humidity,HourlyPrecipIn,Conditions,Clouds,dailyrainin,SoftwareType,DateUTC
2013-02-16 00:04:00,45.2,34.1,29.87,NW,311,0.0,0.0,65,0.00,,,0.00,LWC V2.00 B2112,2013-02-16 05:04:00,
2013-02-16 00:09:00,44.8,33.8,29.87,North,359,0.0,1.0,65,0.00,,,0.00,LWC V2.00 B2112,2013-02-16 05:09:00,
2013-02-16 00:14:00,44.6,33.2,29.87,WNW,289,0.0,0.0,64,0.00,,,0.00,LWC V2.00 B2112,2013-02-16 05:14:00,
2013-02-16 00:19:00,44.5,33.1,29.87,NW,309,2.0,5.0,64,0.00,,,0.00,LWC V2.00 B2112,2013-02-16 05:19:00,
2013-02-16 00:24:00,44.3,32.5,29.88,NW,316,0.0,0.0,63,0.00,,,0.00,LWC V2.00 B2112,2013-02-16 05:24:00,
2013-02-16 00:29:00,44.1,32.3,29.88,NNW,346,0.0,0.0,63,0.00,,,0.00,LWC V2.00 B2112,2013-02-16 05:29:00,
2013-02-16 00:34:00,43.8,31.6,29.88,North,359,1.0,2.0,62,0.00,,,0.00,LWC V2.00 B2112,2013-02-16 05:34:00,
2013-02-16 00:39:00,43.8,31.2,29.88,NNW,338,0.0,0.0,61,0.00,,,0.00,LWC V2.00 B2112,2013-02-16 05:39:00,
2013-02-16 00:44:00,43.5,31.0,29.88,NNW,339,0.0,0.0,61,0.00,,,0.00,LWC V2.00 B2112,2013-02-16 05:44:00,
2013-02-16 00:49:00,43.3,30.8,29.88,WNW,300,0.0,4.0,61,0.00,,,0.00,LWC V2.00 B2112,2013-02-16 05:49:00,
2013-02-16 00:54:00,43.3,30.8,29.88,NW,318,0.0,3.0,61,0.00,,,0.00,LWC V2.00 B2112,2013-02-16 05:54:00,
2013-02-16 00:59:00,43.2,30.7,29.88,NW,310,0.0,0.0,61,0.00,,,0.00,LWC V2.00 B2112,2013-02-16 05:59:00,
2013-02-16 01:04:00,43.1,30.6,29.88,NW,312,0.0,0.0,61,0.00,,,0.00,LWC V2.00 B2112,2013-02-16 06:04:00,
2013-02-16 01:09:00,42.8,30.3,29.87,NW,307,0.0,0.0,61,0.00,,,0.00,LWC V2.00 B2112,2013-02-16 06:09:00,
2013-02-16 01:14:00,42.6,30.5,29.87,NNW,333,0.0,0.0,62,0.00,,,0.00,LWC V2.00 B2112,2013-02-16 06:14:00,
2013-02-16 01:19:00,42.5,30.4,29.87,NW,304,0.0,0.0,62,0.00,,,0.00,LWC V2.00 B2112,2013-02-16 06:19:00,
2013-02-16 01:24:00,42.3,30.6,29.87,NW,304,0.0,0.0,63,0.00,,,0.00,LWC V2.00 B2112,2013-02-16 06:24:00,
2013-02-16 01:29:00,42.3,30.6,29.87,NNW,328,0.0,0.0,63,0.00,,,0.00,LWC V2.00 B2112,2013-02-16 06:29:00,
2013-02-16 01:34:00,42.3,30.2,29.87,NW,308,0.0,0.0,62,0.00,,,0.00,LWC V2.00 B2112,2013-02-16 06:34:00,
2013-02-16 01:39:00,42.5,30.8,29.87,NW,309,0.0,0.0,63,0.00,,,0.00,LWC V2.00 B2112,2013-02-16 06:39:00,
2013-02-16 01:44:00,42.5,30.4,29.87,NW,309,0.0,0.0,62,0.00,,,0.00,LWC V2.00 B2112,2013-02-16 06:44:00,
2013-02-16 01:49:00,42.5,30.8,29.87,NW,309,0.0,0.0,63,0.00,,,0.00,LWC V2.00 B2112,2013-02-16 06:49:00,
2013-02-16 01:54:00,42.5,30.8,29.86,NW,309,0.0,0.0,63,0.00,,,0.00,LWC V2.00 B2112,2013-02-16 06:54:00,
2013-02-16 01:59:00,42.3,30.6,29.86,NW,309,0.0,0.0,63,0.00,,,0.00,LWC V2.00 B2112,2013-02-16 06:59:00,
2013-02-16 02:04:00,42.3,31.0,29.86,NW,309,0.0,0.0,64,0.00,,,0.00,LWC V2.00 B2112,2013-02-16 07:04:00,
2013-02-16 02:09:00,42.3,30.6,29.85,NW,309,0.0,0.0,63,0.00,,,0.00,LWC V2.00 B2112,2013-02-16 07:09:00,
2013-02-16 02:14:00,42.2,30.9,29.85,NW,309,0.0,0.0,64,0.00,,,0.00,LWC V2.00 B2112,2013-02-16 07:14:00,
2013-02-16 02:19:00,42.2,30.9,29.85,NW,309,0.0,0.0,64,0.00,,,0.00,LWC V2.00 B2112,2013-02-16 07:19:00,
2013-02-16 02:24:00,42.2,30.9,29.85,NW,307,0.0,0.0,64,0.00,,,0.00,LWC V2.00 B2112,2013-02-16 07:24:00,
2013-02-16 02:29:00,42.2,30.9,29.85,NW,307,0.0,0.0,64,0.00,,,0.00,LWC V2.00 B2112,2013-02-16 07:29:00,
2013-02-16 02:34:00,42.2,30.9,29.85,NW,307,0.0,0.0,64,0.00,,,0.00,LWC V2.00 B2112,2013-02-16 07:34:00,
2013-02-16 02:39:00,42.2,30.9,29.85,NW,307,0.0,0.0,64,0.00,,,0.00,LWC V2.00 B2112,2013-02-16 07:39:00,
2013-02-16 02:44:00,42.1,30.8,29.85,NW,307,0.0,0.0,64,0.00,,,0.00,LWC V2.00 B2112,2013-02-16 07:44:00,
2013-02-16 02:49:00,42.1,30.8,29.85,WNW,302,0.0,0.0,64,0.00,,,0.00,LWC V2.00 B2112,2013-02-16 07:49:00,
2013-02-16 02:54:00,42.1,30.8,29.85,WNW,302,0.0,0.0,64,0.00,,,0.00,LWC V2.00 B2112,2013-02-16 07:54:00,
2013-02-16 02:59:00,42.1,31.2,29.85,WNW,302,0.0,0.0,65,0.00,,,0.00,LWC V2.00 B2112,2013-02-16 07:59:00,
2013-02-16 03:04:00,42.1,31.2,29.85,WNW,302,0.0,0.0,65,0.00,,,0.00,LWC V2.00 B2112,2013-02-16 08:04:00,
2013-02-16 03:09:00,41.9,31.4,29.85,WNW,302,0.0,0.0,66,0.00,,,0.00,LWC V2.00 B2112,2013-02-16 08:09:00,
2013-02-16 03:14:00,41.9,31.4,29.85,WNW,302,0.0,0.0,66,0.00,,,0.00,LWC V2.00 B2112,2013-02-16 08:14:00,
2013-02-16 03:19:00,41.8,31.3,29.85,WNW,302,0.0,0.0,66,0.00,,,0.00,LWC V2.00 B2112,2013-02-16 08:19:00,
2013-02-16 03:24:00,41.6,31.1,29.85,WNW,302,0.0,0.0,66,0.00,,,0.00,LWC V2.00 B2112,2013-02-16 08:24:00,
2013-02-16 03:29:00,41.6,31.1,29.85,WNW,302,0.0,0.0,66,0.00,,,0.00,LWC V2.00 B2112,2013-02-16 08:29:00,
2013-02-16 03:34:00,41.6,31.5,29.85,WNW,302,0.0,0.0,67,0.00,,,0.00,LWC V2.00 B2112,2013-02-16 08:34:00,
2013-02-16 03:39:00,41.5,31.4,29.85,WNW,302,0.0,0.0,67,0.00,,,0.00,LWC V2.00 B2112,2013-02-16 08:39:00,
2013-02-16 03:44:00,41.3,31.2,29.85,WNW,302,0.0,0.0,67,0.00,,,0.00,LWC V2.00 B2112,2013-02-16 08:44:00,
2013-02-16 03:49:00,41.3,31.5,29.85,WNW,302,0.0,0.0,68,0.00,,,0.00,LWC V2.00 B2112,2013-02-16 08:49:00,
2013-02-16 03:54:00,41.2,31.5,29.85,WNW,302,0.0,0.0,68,0.00,,,0.00,LWC V2.00 B2112,2013-02-16 08:54:00,
2013-02-16 03:59:00,41.2,31.5,29.85,WNW,302,0.0,0.0,68,0.00,,,0.00,LWC V2.00 B2112,2013-02-16 08:59:00,
2013-02-16 04:04:00,41.1,31.4,29.85,WNW,302,0.0,0.0,68,0.00,,,0.00,LWC V2.00 B2112,2013-02-16 09:04:00,
2013-02-16 04:09:00,41.1,31.7,29.84,WNW,302,0.0,0.0,69,0.00,,,0.00,LWC V2.00 B2112,2013-02-16 09:09:00,
2013-02-16 04:14:00,41.1,31.7,29.84,WNW,290,0.0,0.0,69,0.00,,,0.00,LWC V2.00 B2112,2013-02-16 09:14:00,
2013-02-16 04:19:00,40.9,31.5,29.84,WNW,290,0.0,0.0,69,0.00,,,0.00,LWC V2.00 B2112,2013-02-16 09:19:00,
2013-02-16 04:24:00,40.9,31.9,29.84,WNW,290,0.0,0.0,70,0.00,,,0.00,LWC V2.00 B2112,2013-02-16 09:24:00,
2013-02-16 04:29:00,40.9,31.9,29.84,WNW,290,0.0,0.0,70,0.00,,,0.00,LWC V2.00 B2112,2013-02-16 09:29:00,
2013-02-16 04:34:00,40.8,31.8,29.84,WNW,290,0.0,0.0,70,0.00,,,0.00,LWC V2.00 B2112,2013-02-16 09:34:00,
2013-02-16 04:39:00,40.8,31.8,29.85,WNW,290,0.0,0.0,70,0.00,,,0.00,LWC V2.00 B2112,2013-02-16 09:39:00,
2013-02-16 04:44:00,40.8,31.8,29.85,WNW,290,0.0,0.0,70,0.00,,,0.00,LWC V2.00 B2112,2013-02-16 09:44:00,
2013-02-16 04:49:00,40.8,31.8,29.85,WNW,290,0.0,0.0,70,0.00,,,0.00,LWC V2.00 B2112,2013-02-16 09:49:00,
2013-02-16 04:54:00,40.8,32.1,29.84,WNW,290,0.0,0.0,71,0.00,,,0.00,LWC V2.00 B2112,2013-02-16 09:54:00,
2013-02-16 04:59:00,40.6,31.9,29.84,WNW,290,0.0,0.0,71,0.00,,,0.00,LWC V2.00 B2112,2013-02-16 09:59:00,
2013-02-16 05:04:00,40.6,31.9,29.84,WNW,290,0.0,0.0,71,0.00,,,0.00,LWC V2.00 B2112,2013-02-16 10:04:00,
2013-02-16 05:09:00,40.5,31.8,29.84,WNW,290,0.0,0.0,71,0.00,,,0.00,LWC V2.00 B2112,2013-02-16 10:09:00,
2013-02-16 05:14:00,40.5,32.2,29.84,WNW,290,0.0,0.0,72,0.00,,,0.00,LWC V2.00 B2112,2013-02-16 10:14:00,
2013-02-16 05:19:00,40.5,32.2,29.84,WNW,290,0.0,0.0,72,0.00,,,0.00,LWC V2.00 B2112,2013-02-16 10:19:00,
2013-02-16 05:24:00,40.3,32.0,29.84,WNW,290,0.0,0.0,72,0.00,,,0.00,LWC V2.00 B2112,2013-02-16 10:24:00,
2013-02-16 05:29:00,40.2,32.2,29.84,WNW,290,0.0,0.0,73,0.00,,,0.00,LWC V2.00 B2112,2013-02-16 10:29:00,
2013-02-16 05:34:00,40.1,32.5,29.84,WNW,290,0.0,0.0,74,0.00,,,0.00,LWC V2.00 B2112,2013-02-16 10:34:00,
2013-02-16 05:39:00,39.9,32.3,29.83,WNW,290,0.0,0.0,74,0.00,,,0.00,LWC V2.00 B2112,2013-02-16 10:39:00,
2013-02-16 05:44:00,39.9,32.6,29.83,North,1,0.0,0.0,75,0.00,,,0.00,LWC V2.00 B2112,2013-02-16 10:44:00,
2013-02-16 05:49:00,40.1,33.2,29.83,North,1,0.0,0.0,76,0.00,,,0.00,LWC V2.00 B2112,2013-02-16 10:49:00,
2013-02-16 05:54:00,40.1,33.5,29.84,NW,308,0.0,0.0,77,0.00,,,0.00,LWC V2.00 B2112,2013-02-16 10:54:00,
2013-02-16 05:59:00,40.1,33.5,29.84,NW,308,0.0,0.0,77,0.00,,,0.00,LWC V2.00 B2112,2013-02-16 10:59:00,
2013-02-16 06:04:00,40.1,33.8,29.84,NW,308,0.0,0.0,78,0.00,,,0.00,LWC V2.00 B2112,2013-02-16 11:04:00,
2013-02-16 06:09:00,40.1,33.8,29.83,NW,308,0.0,0.0,78,0.00,,,0.00,LWC V2.00 B2112,2013-02-16 11:09:00,
2013-02-16 06:14:00,40.2,33.9,29.83,NW,308,0.0,0.0,78,0.00,,,0.00,LWC V2.00 B2112,2013-02-16 11:14:00,
2013-02-16 06:19:00,40.2,33.9,29.83,NW,308,0.0,0.0,78,0.00,,,0.00,LWC V2.00 B2112,2013-02-16 11:19:00,
2013-02-16 06:24:00,40.1,33.8,29.83,NW,308,0.0,0.0,78,0.00,,,0.00,LWC V2.00 B2112,2013-02-16 11:24:00,
2013-02-16 06:29:00,40.1,34.1,29.83,NW,308,0.0,0.0,79,0.00,,,0.00,LWC V2.00 B2112,2013-02-16 11:29:00,
2013-02-16 06:34:00,39.9,33.9,29.83,NW,308,0.0,0.0,79,0.00,,,0.00,LWC V2.00 B2112,2013-02-16 11:34:00,
2013-02-16 06:39:00,39.9,34.2,29.83,NW,308,0.0,0.0,80,0.00,,,0.00,LWC V2.00 B2112,2013-02-16 11:39:00,
2013-02-16 06:44:00,39.8,34.5,29.83,NW,308,0.0,0.0,81,0.00,,,0.00,LWC V2.00 B2112,2013-02-16 11:44:00,
2013-02-16 06:49:00,39.8,34.8,29.83,NW,308,0.0,0.0,82,0.00,,,0.00,LWC V2.00 B2112,2013-02-16 11:49:00,
2013-02-16 06:54:00,39.8,34.8,29.83,NW,305,0.0,0.0,82,0.00,,,0.00,LWC V2.00 B2112,2013-02-16 11:54:00,
2013-02-16 06:59:00,39.8,35.1,29.83,NW,305,0.0,0.0,83,0.00,,,0.00,LWC V2.00 B2112,2013-02-16 11:59:00,
2013-02-16 07:04:00,39.6,35.2,29.83,NW,305,0.0,0.0,84,0.00,,,0.00,LWC V2.00 B2112,2013-02-16 12:04:00,
2013-02-16 07:09:00,39.6,35.2,29.83,NW,305,0.0,0.0,84,0.00,,,0.00,LWC V2.00 B2112,2013-02-16 12:09:00,
2013-02-16 07:14:00,39.5,35.1,29.83,NW,305,0.0,0.0,84,0.00,,,0.00,LWC V2.00 B2112,2013-02-16 12:14:00,
2013-02-16 07:19:00,39.5,35.1,29.83,NNW,330,0.0,0.0,84,0.00,,,0.00,LWC V2.00 B2112,2013-02-16 12:19:00,
2013-02-16 07:24:00,39.5,34.8,29.83,WNW,293,0.0,0.0,83,0.00,,,0.00,LWC V2.00 B2112,2013-02-16 12:24:00,
2013-02-16 07:29:00,39.5,34.8,29.83,NW,316,0.0,0.0,83,0.00,,,0.00,LWC V2.00 B2112,2013-02-16 12:29:00,
2013-02-16 07:34:00,39.5,35.1,29.83,NW,313,0.0,0.0,84,0.00,,,0.00,LWC V2.00 B2112,2013-02-16 12:34:00,
2013-02-16 07:39:00,39.2,35.1,29.84,NW,312,0.0,0.0,85,0.00,,,0.00,LWC V2.00 B2112,2013-02-16 12:39:00,
2013-02-16 07:44:00,39.1,35.3,29.84,NW,311,0.0,0.0,86,0.00,,,0.00,LWC V2.00 B2112,2013-02-16 12:44:00,
2013-02-16 07:49:00,38.9,35.4,29.84,WNW,303,0.0,0.0,87,0.00,,,0.00,LWC V2.00 B2112,2013-02-16 12:49:00,
2013-02-16 07:54:00,38.6,35.4,29.84,WNW,302,0.0,0.0,88,0.00,,,0.00,LWC V2.00 B2112,2013-02-16 12:54:00,
2013-02-16 07:59:00,38.5,35.5,29.84,WNW,285,0.0,0.0,89,0.00,,,0.00,LWC V2.00 B2112,2013-02-16 12:59:00,
2013-02-16 08:04:00,38.2,35.5,29.84,North,9,0.0,0.0,90,0.00,,,0.00,LWC V2.00 B2112,2013-02-16 13:04:00,
2013-02-16 08:09:00,38.0,35.6,29.84,NW,317,0.0,0.0,91,0.00,,,0.01,LWC V2.00 B2112,2013-02-16 13:09:00,
2013-02-16 08:14:00,37.9,35.5,29.84,WNW,302,0.0,0.0,91,0.00,,,0.01,LWC V2.00 B2112,2013-02-16 13:14:00,
2013-02-16 08:19:00,37.6,35.5,29.84,WNW,295,0.0,0.0,92,0.00,,,0.01,LWC V2.00 B2112,2013-02-16 13:19:00,
2013-02-16 08:24:00,37.5,35.4,29.85,WNW,290,0.0,0.0,92,0.00,,,0.01,LWC V2.00 B2112,2013-02-16 13:24:00,
2013-02-16 08:29:00,37.3,35.5,29.85,WNW,295,0.0,0.0,93,0.00,,,0.01,LWC V2.00 B2112,2013-02-16 13:29:00,
2013-02-16 08:34:00,37.2,35.4,29.85,WNW,295,0.0,0.0,93,0.00,,,0.02,LWC V2.00 B2112,2013-02-16 13:34:00,
2013-02-16 08:39:00,37.0,35.2,29.85,NW,311,0.0,0.0,93,0.00,,,0.02,LWC V2.00 B2112,2013-02-16 13:39:00,
2013-02-16 08:44:00,37.0,35.2,29.85,North,1,0.0,0.0,93,0.00,,,0.02,LWC V2.00 B2112,2013-02-16 13:44:00,
2013-02-16 08:49:00,36.9,35.1,29.85,WNW,303,0.0,4.0,93,0.00,,,0.02,LWC V2.00 B2112,2013-02-16 13:49:00,
2013-02-16 08:54:00,36.8,35.2,29.86,WNW,303,0.0,0.0,94,0.00,,,0.03,LWC V2.00 B2112,2013-02-16 13:54:00,
2013-02-16 08:59:00,36.6,35.0,29.86,WNW,303,0.0,0.0,94,0.00,,,0.03,LWC V2.00 B2112,2013-02-16 13:59:00,
2013-02-16 09:04:00,36.6,35.0,29.86,NW,314,0.0,1.0,94,0.00,,,0.03,LWC V2.00 B2112,2013-02-16 14:04:00,
2013-02-16 09:09:00,36.5,34.9,29.85,NW,311,0.0,0.0,94,0.04,,,0.04,LWC V2.00 B2112,2013-02-16 14:09:00,
2013-02-16 09:14:00,36.2,34.6,29.85,NNW,331,0.0,0.0,94,0.04,,,0.04,LWC V2.00 B2112,2013-02-16 14:14:00,
2013-02-16 09:19:00,35.8,34.0,29.85,WNW,298,0.0,0.0,93,0.08,,,0.05,LWC V2.00 B2112,2013-02-16 14:19:00,
2013-02-16 09:24:00,35.3,33.5,29.85,NW,309,0.0,0.0,93,0.07,,,0.05,LWC V2.00 B2112,2013-02-16 14:24:00,
2013-02-16 09:29:00,34.9,33.1,29.85,WNW,302,0.0,0.0,93,0.07,,,0.06,LWC V2.00 B2112,2013-02-16 14:29:00,
2013-02-16 09:34:00,34.6,33.1,29.85,North,11,0.0,0.0,94,0.06,,,0.06,LWC V2.00 B2112,2013-02-16 14:34:00,
2013-02-16 09:39:00,34.4,32.9,29.85,North,11,0.0,0.0,94,0.05,,,0.07,LWC V2.00 B2112,2013-02-16 14:39:00,
2013-02-16 09:44:00,34.1,32.6,29.85,NW,309,0.0,0.0,94,0.05,,,0.07,LWC V2.00 B2112,2013-02-16 14:44:00,
2013-02-16 09:49:00,33.8,32.3,29.85,NW,309,0.0,0.0,94,0.05,,,0.07,LWC V2.00 B2112,2013-02-16 14:49:00,
2013-02-16 09:54:00,33.7,32.2,29.85,NW,305,0.0,0.0,94,0.00,,,0.07,LWC V2.00 B2112,2013-02-16 14:54:00,
2013-02-16 09:59:00,33.5,32.0,29.85,NW,305,0.0,0.0,94,0.00,,,0.07,LWC V2.00 B2112,2013-02-16 14:59:00,
2013-02-16 10:04:00,33.2,31.9,29.85,NW,305,0.0,0.0,95,0.00,,,0.07,LWC V2.00 B2112,2013-02-16 15:04:00,
2013-02-16 10:09:00,33.1,31.8,29.85,NW,305,0.0,0.0,95,0.00,,,0.07,LWC V2.00 B2112,2013-02-16 15:09:00,
2013-02-16 10:14:00,32.9,31.6,29.85,NW,305,0.0,0.0,95,0.00,,,0.07,LWC V2.00 B2112,2013-02-16 15:14:00,
2013-02-16 10:19:00,32.9,31.6,29.85,NW,305,0.0,0.0,95,0.00,,,0.07,LWC V2.00 B2112,2013-02-16 15:19:00,
2013-02-16 10:24:00,32.9,31.6,29.84,NW,305,0.0,0.0,95,0.00,,,0.07,LWC V2.00 B2112,2013-02-16 15:24:00,
2013-02-16 10:29:00,32.9,31.6,29.84,NW,305,0.0,0.0,95,0.00,,,0.07,LWC V2.00 B2112,2013-02-16 15:29:00,
2013-02-16 10:34:00,32.8,31.8,29.84,NW,305,0.0,0.0,96,0.00,,,0.07,LWC V2.00 B2112,2013-02-16 15:34:00,
2013-02-16 10:39:00,32.8,31.8,29.83,NW,305,0.0,0.0,96,0.00,,,0.07,LWC V2.00 B2112,2013-02-16 15:39:00,
2013-02-16 10:44:00,32.8,31.8,29.83,NW,305,0.0,0.0,96,0.00,,,0.07,LWC V2.00 B2112,2013-02-16 15:44:00,
2013-02-16 10:49:00,32.8,31.8,29.83,NW,305,0.0,0.0,96,0.00,,,0.07,LWC V2.00 B2112,2013-02-16 15:49:00,
2013-02-16 10:54:00,32.8,31.8,29.83,NW,305,0.0,0.0,96,0.00,,,0.07,LWC V2.00 B2112,2013-02-16 15:54:00,
2013-02-16 10:59:00,32.8,31.8,29.83,NW,305,0.0,0.0,96,0.00,,,0.07,LWC V2.00 B2112,2013-02-16 15:59:00,
2013-02-16 11:04:00,32.8,31.8,29.83,NW,305,0.0,0.0,96,0.00,,,0.07,LWC V2.00 B2112,2013-02-16 16:04:00,
2013-02-16 11:09:00,32.8,31.8,29.84,NW,305,0.0,0.0,96,0.00,,,0.07,LWC V2.00 B2112,2013-02-16 16:09:00,
2013-02-16 11:14:00,32.8,31.8,29.84,NW,306,0.0,0.0,96,0.00,,,0.07,LWC V2.00 B2112,2013-02-16 16:14:00,
2013-02-16 11:19:00,32.8,31.8,29.84,NW,306,0.0,0.0,96,0.00,,,0.07,LWC V2.00 B2112,2013-02-16 16:19:00,
2013-02-16 11:24:00,32.8,31.8,29.83,NW,306,0.0,0.0,96,0.00,,,0.07,LWC V2.00 B2112,2013-02-16 16:24:00,
2013-02-16 11:29:00,32.8,31.8,29.83,NW,304,0.0,0.0,96,0.00,,,0.07,LWC V2.00 B2112,2013-02-16 16:29:00,
2013-02-16 11:34:00,32.8,31.8,29.83,NW,304,0.0,0.0,96,0.00,,,0.08,LWC V2.00 B2112,2013-02-16 16:34:00,
2013-02-16 11:39:00,32.8,31.8,29.83,NW,304,0.0,0.0,96,0.00,,,0.08,LWC V2.00 B2112,2013-02-16 16:39:00,
2013-02-16 11:44:00,32.8,31.8,29.83,NW,304,0.0,0.0,96,0.00,,,0.08,LWC V2.00 B2112,2013-02-16 16:44:00,
2013-02-16 11:49:00,32.8,31.8,29.83,NW,304,0.0,0.0,96,0.00,,,0.08,LWC V2.00 B2112,2013-02-16 16:49:00,
2013-02-16 11:54:00,32.8,32.0,29.82,NW,307,0.0,0.0,97,0.00,,,0.08,LWC V2.00 B2112,2013-02-16 16:54:00,
2013-02-16 11:59:00,32.9,32.1,29.82,NW,307,0.0,0.0,97,0.00,,,0.09,LWC V2.00 B2112,2013-02-16 16:59:00,
2013-02-16 12:04:00,32.9,32.1,29.82,NW,308,0.0,0.0,97,0.00,,,0.09,LWC V2.00 B2112,2013-02-16 17:04:00,
2013-02-16 12:09:00,33.1,32.3,29.81,NW,308,0.0,0.0,97,0.00,,,0.09,LWC V2.00 B2112,2013-02-16 17:09:00,
2013-02-16 12:14:00,33.1,32.3,29.81,NW,308,0.0,0.0,97,0.00,,,0.09,LWC V2.00 B2112,2013-02-16 17:14:00,
2013-02-16 12:19:00,33.1,32.3,29.81,NW,308,0.0,0.0,97,0.00,,,0.10,LWC V2.00 B2112,2013-02-16 17:19:00,
2013-02-16 12:24:00,33.2,32.4,29.80,NW,308,0.0,0.0,97,0.00,,,0.10,LWC V2.00 B2112,2013-02-16 17:24:00,
2013-02-16 12:29:00,33.2,32.4,29.80,NW,309,0.0,0.0,97,0.00,,,0.10,LWC V2.00 B2112,2013-02-16 17:29:00,
2013-02-16 12:34:00,33.5,32.7,29.80,NW,309,0.0,0.0,97,0.04,,,0.11,LWC V2.00 B2112,2013-02-16 17:34:00,
2013-02-16 12:39:00,33.5,32.7,29.79,NW,309,0.0,0.0,97,0.04,,,0.11,LWC V2.00 B2112,2013-02-16 17:39:00,
2013-02-16 12:44:00,33.7,32.9,29.79,NW,309,0.0,0.0,97,0.04,,,0.11,LWC V2.00 B2112,2013-02-16 17:44:00,
2013-02-16 12:49:00,34.0,33.2,29.79,North,359,0.0,0.0,97,0.04,,,0.12,LWC V2.00 B2112,2013-02-16 17:49:00,
2013-02-16 12:54:00,34.1,33.3,29.78,North,359,0.0,0.0,97,0.07,,,0.13,LWC V2.00 B2112,2013-02-16 17:54:00,
2013-02-16 12:59:00,34.1,33.3,29.78,North,0,0.0,0.0,97,0.07,,,0.13,LWC V2.00 B2112,2013-02-16 17:59:00,
2013-02-16 13:04:00,34.1,33.1,29.78,NE,47,0.0,0.0,96,0.06,,,0.13,LWC V2.00 B2112,2013-02-16 18:04:00,
2013-02-16 13:14:00,34.1,33.1,29.78,ESE,106,0.0,0.0,96,0.06,,,0.14,LWC V2.00 B2112,2013-02-16 18:14:00,
2013-02-16 13:19:00,34.1,33.1,29.78,ENE,66,0.0,0.0,96,0.05,,,0.15,LWC V2.00 B2112,2013-02-16 18:19:00,
2013-02-16 13:24:00,34.3,33.3,29.77,ENE,66,0.0,0.0,96,0.05,,,0.15,LWC V2.00 B2112,2013-02-16 18:24:00,
2013-02-16 13:29:00,34.3,33.3,29.77,ENE,66,0.0,0.0,96,0.05,,,0.16,LWC V2.00 B2112,2013-02-16 18:29:00,
2013-02-16 13:34:00,34.4,33.4,29.77,ENE,66,0.0,0.0,96,0.05,,,0.16,LWC V2.00 B2112,2013-02-16 18:34:00,
2013-02-16 13:39:00,34.4,33.4,29.77,ENE,66,0.0,0.0,96,0.06,,,0.16,LWC V2.00 B2112,2013-02-16 18:39:00,
2013-02-16 13:44:00,34.3,33.0,29.77,ENE,66,0.0,0.0,95,0.06,,,0.17,LWC V2.00 B2112,2013-02-16 18:44:00,
2013-02-16 13:49:00,34.3,33.0,29.77,ENE,66,0.0,0.0,95,0.06,,,0.17,LWC V2.00 B2112,2013-02-16 18:49:00,
2013-02-16 13:54:00,34.3,33.0,29.76,ENE,66,0.0,0.0,95,0.04,,,0.17,LWC V2.00 B2112,2013-02-16 18:54:00,
2013-02-16 13:59:00,34.3,33.0,29.76,NNW,328,0.0,0.0,95,0.04,,,0.18,LWC V2.00 B2112,2013-02-16 18:59:00,
2013-02-16 14:04:00,34.3,33.0,29.76,NW,304,0.0,0.0,95,0.04,,,0.18,LWC V2.00 B2112,2013-02-16 19:04:00,
2013-02-16 14:09:00,34.1,32.8,29.76,ESE,120,0.0,0.0,95,0.04,,,0.18,LWC V2.00 B2112,2013-02-16 19:09:00,
2013-02-16 14:14:00,34.3,33.0,29.76,ESE,120,0.0,0.0,95,0.04,,,0.19,LWC V2.00 B2112,2013-02-16 19:14:00,
2013-02-16 14:19:00,34.1,32.8,29.76,NE,50,0.0,0.0,95,0.04,,,0.19,LWC V2.00 B2112,2013-02-16 19:19:00,
2013-02-16 14:24:00,34.0,32.7,29.76,NE,50,0.0,0.0,95,0.04,,,0.19,LWC V2.00 B2112,2013-02-16 19:24:00,
2013-02-16 14:29:00,33.8,32.5,29.76,South,188,0.0,0.0,95,0.00,,,0.19,LWC V2.00 B2112,2013-02-16 19:29:00,
2013-02-16 14:34:00,33.8,32.5,29.76,South,188,0.0,0.0,95,0.00,,,0.20,LWC V2.00 B2112,2013-02-16 19:34:00,
2013-02-16 14:39:00,33.8,32.5,29.76,South,189,0.0,0.0,95,0.00,,,0.20,LWC V2.00 B2112,2013-02-16 19:39:00,
2013-02-16 14:44:00,33.8,32.5,29.76,West,264,0.0,0.0,95,0.00,,,0.20,LWC V2.00 B2112,2013-02-16 19:44:00,
2013-02-16 14:49:00,33.8,32.5,29.76,West,276,0.0,0.0,95,0.00,,,0.20,LWC V2.00 B2112,2013-02-16 19:49:00,
2013-02-16 14:54:00,33.8,32.5,29.76,North,1,0.0,0.0,95,0.00,,,0.21,LWC V2.00 B2112,2013-02-16 19:54:00,
2013-02-16 14:59:00,33.8,32.5,29.76,North,3,0.0,0.0,95,0.00,,,0.21,LWC V2.00 B2112,2013-02-16 19:59:00,
2013-02-16 15:04:00,33.7,32.4,29.76,NW,304,0.0,0.0,95,0.00,,,0.21,LWC V2.00 B2112,2013-02-16 20:04:00,
2013-02-16 15:09:00,33.7,32.7,29.75,NW,304,0.0,0.0,96,0.00,,,0.21,LWC V2.00 B2112,2013-02-16 20:09:00,
2013-02-16 15:14:00,33.5,32.2,29.75,NW,304,0.0,0.0,95,0.00,,,0.21,LWC V2.00 B2112,2013-02-16 20:14:00,
2013-02-16 15:19:00,33.2,31.9,29.75,NW,304,0.0,0.0,95,0.00,,,0.21,LWC V2.00 B2112,2013-02-16 20:19:00,
2013-02-16 15:24:00,33.2,32.2,29.75,NW,305,0.0,0.0,96,0.00,,,0.21,LWC V2.00 B2112,2013-02-16 20:24:00,
2013-02-16 15:29:00,33.1,32.1,29.75,NW,314,0.0,0.0,96,0.00,,,0.22,LWC V2.00 B2112,2013-02-16 20:29:00,
2013-02-16 15:34:00,32.9,31.9,29.75,WNW,303,0.0,0.0,96,0.00,,,0.22,LWC V2.00 B2112,2013-02-16 20:34:00,
2013-02-16 15:39:00,32.9,31.9,29.74,NW,309,0.0,3.0,96,0.00,,,0.22,LWC V2.00 B2112,2013-02-16 20:39:00,
2013-02-16 15:44:00,32.9,31.9,29.74,NNW,334,0.0,0.0,96,0.00,,,0.22,LWC V2.00 B2112,2013-02-16 20:44:00,
2013-02-16 15:49:00,32.9,31.9,29.74,NNW,334,0.0,0.0,96,0.00,,,0.22,LWC V2.00 B2112,2013-02-16 20:49:00,
2013-02-16 15:54:00,32.8,31.8,29.74,NW,321,0.0,0.0,96,0.00,,,0.22,LWC V2.00 B2112,2013-02-16 20:54:00,
2013-02-16 15:59:00,32.8,31.8,29.74,WNW,302,0.0,0.0,96,0.00,,,0.22,LWC V2.00 B2112,2013-02-16 20:59:00,
2013-02-16 16:04:00,32.8,31.8,29.74,WNW,287,1.0,3.0,96,0.00,,,0.23,LWC V2.00 B2112,2013-02-16 21:04:00,
2013-02-16 16:14:00,32.7,31.7,29.75,WNW,286,0.0,0.0,96,0.00,,,0.23,LWC V2.00 B2112,2013-02-16 21:14:00,
2013-02-16 16:19:00,32.7,31.9,29.75,NNW,330,0.0,0.0,97,0.00,,,0.23,LWC V2.00 B2112,2013-02-16 21:19:00,
2013-02-16 16:24:00,32.7,31.9,29.75,NW,311,0.0,0.0,97,0.00,,,0.23,LWC V2.00 B2112,2013-02-16 21:24:00,
2013-02-16 16:29:00,32.7,31.9,29.75,NNW,342,3.0,3.0,97,0.00,,,0.23,LWC V2.00 B2112,2013-02-16 21:29:00,
2013-02-16 16:34:00,32.7,31.9,29.75,West,262,0.0,0.0,97,0.00,,,0.23,LWC V2.00 B2112,2013-02-16 21:34:00,
2013-02-16 16:39:00,32.7,31.9,29.75,WNW,303,0.0,0.0,97,0.00,,,0.23,LWC V2.00 B2112,2013-02-16 21:39:00,
2013-02-16 16:44:00,32.7,31.9,29.75,WNW,284,0.0,0.0,97,0.00,,,0.23,LWC V2.00 B2112,2013-02-16 21:44:00,
2013-02-16 16:49:00,32.5,31.5,29.75,North,6,0.0,0.0,96,0.00,,,0.23,LWC V2.00 B2112,2013-02-16 21:49:00,
2013-02-16 16:54:00,32.5,31.5,29.74,WNW,303,0.0,3.0,96,0.00,,,0.24,LWC V2.00 B2112,2013-02-16 21:54:00,
2013-02-16 16:59:00,32.5,31.5,29.74,NNW,331,0.0,0.0,96,0.00,,,0.24,LWC V2.00 B2112,2013-02-16 21:59:00,
2013-02-16 17:04:00,32.5,31.5,29.74,North,1,0.0,0.0,96,0.00,,,0.24,LWC V2.00 B2112,2013-02-16 22:04:00,
2013-02-16 17:09:00,32.5,31.5,29.75,WNW,298,0.0,0.0,96,0.00,,,0.24,LWC V2.00 B2112,2013-02-16 22:09:00,
2013-02-16 17:14:00,32.4,31.4,29.75,West,277,0.0,0.0,96,0.00,,,0.24,LWC V2.00 B2112,2013-02-16 22:14:00,
2013-02-16 17:19:00,32.4,31.4,29.75,North,0,0.0,0.0,96,0.00,,,0.24,LWC V2.00 B2112,2013-02-16 22:19:00,
2013-02-16 17:24:00,32.4,31.4,29.75,WNW,291,0.0,0.0,96,0.00,,,0.24,LWC V2.00 B2112,2013-02-16 22:24:00,
2013-02-16 17:29:00,32.4,31.4,29.75,WNW,302,0.0,2.0,96,0.00,,,0.24,LWC V2.00 B2112,2013-02-16 22:29:00,
2013-02-16 17:34:00,32.4,31.4,29.75,West,262,0.0,0.0,96,0.00,,,0.24,LWC V2.00 B2112,2013-02-16 22:34:00,
2013-02-16 17:39:00,32.2,31.2,29.74,NW,312,0.0,0.0,96,0.00,,,0.24,LWC V2.00 B2112,2013-02-16 22:39:00,
2013-02-16 17:44:00,32.2,31.2,29.74,NW,312,0.0,0.0,96,0.00,,,0.24,LWC V2.00 B2112,2013-02-16 22:44:00,
2013-02-16 17:49:00,32.4,31.4,29.74,NNW,329,0.0,3.0,96,0.00,,,0.24,LWC V2.00 B2112,2013-02-16 22:49:00,
2013-02-16 17:54:00,32.2,31.2,29.74,NW,310,0.0,0.0,96,0.00,,,0.24,LWC V2.00 B2112,2013-02-16 22:54:00,
2013-02-16 17:59:00,32.2,31.2,29.74,NW,312,0.0,0.0,96,0.00,,,0.24,LWC V2.00 B2112,2013-02-16 22:59:00,
2013-02-16 18:04:00,32.2,31.4,29.74,WNW,295,0.0,0.0,97,0.00,,,0.24,LWC V2.00 B2112,2013-02-16 23:04:00,
2013-02-16 18:09:00,32.2,31.4,29.74,WNW,296,0.0,0.0,97,0.00,,,0.24,LWC V2.00 B2112,2013-02-16 23:09:00,
2013-02-16 18:14:00,32.2,31.4,29.74,WNW,303,0.0,0.0,97,0.00,,,0.24,LWC V2.00 B2112,2013-02-16 23:14:00,
2013-02-16 18:19:00,32.2,31.4,29.74,NNW,332,0.0,0.0,97,0.00,,,0.24,LWC V2.00 B2112,2013-02-16 23:19:00,
2013-02-16 18:24:00,32.2,31.4,29.74,WNW,291,0.0,0.0,97,0.00,,,0.24,LWC V2.00 B2112,2013-02-16 23:24:00,
2013-02-16 18:29:00,32.2,31.4,29.74,NW,317,0.0,3.0,97,0.00,,,0.24,LWC V2.00 B2112,2013-02-16 23:29:00,
2013-02-16 18:34:00,32.2,31.4,29.74,North,6,0.0,0.0,97,0.00,,,0.24,LWC V2.00 B2112,2013-02-16 23:34:00,
2013-02-16 18:39:00,32.2,31.4,29.76,NW,314,0.0,0.0,97,0.00,,,0.24,LWC V2.00 B2112,2013-02-16 23:39:00,
2013-02-16 18:44:00,32.2,31.4,29.76,WNW,286,0.0,0.0,97,0.00,,,0.24,LWC V2.00 B2112,2013-02-16 23:44:00,
2013-02-16 18:49:00,32.2,31.4,29.76,WNW,289,0.0,0.0,97,0.00,,,0.24,LWC V2.00 B2112,2013-02-16 23:49:00,
2013-02-16 18:54:00,32.1,31.3,29.76,North,351,0.0,0.0,97,0.00,,,0.24,LWC V2.00 B2112,2013-02-16 23:54:00,
2013-02-16 18:59:00,32.1,31.3,29.76,WNW,299,0.0,0.0,97,0.00,,,0.24,LWC V2.00 B2112,2013-02-16 23:59:00,
2013-02-16 19:04:00,32.1,31.3,29.76,North,6,0.0,0.0,97,0.00,,,0.24,LWC V2.00 B2112,2013-02-17 00:04:00,
2013-02-16 19:09:00,32.1,31.3,29.76,NNW,347,0.0,0.0,97,0.00,,,0.24,LWC V2.00 B2112,2013-02-17 00:09:00,
2013-02-16 19:14:00,32.1,31.3,29.76,North,359,0.0,0.0,97,0.00,,,0.24,LWC V2.00 B2112,2013-02-17 00:14:00,
2013-02-16 19:19:00,32.1,31.3,29.76,WNW,293,0.0,0.0,97,0.00,,,0.24,LWC V2.00 B2112,2013-02-17 00:19:00,
2013-02-16 19:24:00,31.9,31.1,29.76,WNW,291,0.0,0.0,97,0.00,,,0.24,LWC V2.00 B2112,2013-02-17 00:24:00,
2013-02-16 19:29:00,31.9,31.1,29.76,NW,309,0.0,4.0,97,0.00,,,0.24,LWC V2.00 B2112,2013-02-17 00:29:00,
2013-02-16 19:34:00,31.9,31.1,29.76,NW,309,0.0,0.0,97,0.00,,,0.24,LWC V2.00 B2112,2013-02-17 00:34:00,
2013-02-16 19:39:00,31.9,31.1,29.76,NW,309,0.0,0.0,97,0.00,,,0.24,LWC V2.00 B2112,2013-02-17 00:39:00,
2013-02-16 19:44:00,31.9,31.1,29.76,NW,307,0.0,3.0,97,0.00,,,0.24,LWC V2.00 B2112,2013-02-17 00:44:00,
2013-02-16 19:49:00,31.9,31.1,29.76,NW,307,0.0,0.0,97,0.00,,,0.24,LWC V2.00 B2112,2013-02-17 00:49:00,
2013-02-16 19:54:00,31.8,31.0,29.77,WNW,293,0.0,2.0,97,0.00,,,0.24,LWC V2.00 B2112,2013-02-17 00:54:00,
2013-02-16 19:59:00,31.8,31.0,29.77,North,357,0.0,0.0,97,0.00,,,0.24,LWC V2.00 B2112,2013-02-17 00:59:00,
2013-02-16 20:04:00,31.8,31.0,29.77,WNW,282,0.0,0.0,97,0.00,,,0.24,LWC V2.00 B2112,2013-02-17 01:04:00,
2013-02-16 20:09:00,31.8,31.0,29.77,West,268,0.0,0.0,97,0.00,,,0.24,LWC V2.00 B2112,2013-02-17 01:09:00,
2013-02-16 20:14:00,31.8,31.0,29.77,North,1,0.0,0.0,97,0.00,,,0.24,LWC V2.00 B2112,2013-02-17 01:14:00,
2013-02-16 20:19:00,31.6,30.8,29.77,NNW,327,0.0,0.0,97,0.00,,,0.24,LWC V2.00 B2112,2013-02-17 01:19:00,
2013-02-16 20:24:00,31.6,30.8,29.77,NW,313,0.0,0.0,97,0.00,,,0.24,LWC V2.00 B2112,2013-02-17 01:24:00,
2013-02-16 20:29:00,31.6,30.8,29.77,WNW,302,0.0,0.0,97,0.00,,,0.24,LWC V2.00 B2112,2013-02-17 01:29:00,
2013-02-16 20:34:00,31.6,30.8,29.77,West,275,0.0,0.0,97,0.00,,,0.24,LWC V2.00 B2112,2013-02-17 01:34:00,
2013-02-16 20:39:00,31.6,30.8,29.77,WNW,303,0.0,0.0,97,0.00,,,0.24,LWC V2.00 B2112,2013-02-17 01:39:00,
2013-02-16 20:44:00,31.6,30.8,29.77,WNW,298,0.0,0.0,97,0.00,,,0.24,LWC V2.00 B2112,2013-02-17 01:44:00,
2013-02-16 20:49:00,31.5,30.7,29.77,WNW,298,0.0,1.0,97,0.00,,,0.24,LWC V2.00 B2112,2013-02-17 01:49:00,
2013-02-16 20:54:00,31.5,30.7,29.78,NNW,342,0.0,5.0,97,0.00,,,0.24,LWC V2.00 B2112,2013-02-17 01:54:00,
2013-02-16 20:59:00,31.5,30.7,29.78,West,275,0.0,3.0,97,0.00,,,0.24,LWC V2.00 B2112,2013-02-17 01:59:00,
2013-02-16 21:04:00,31.5,30.7,29.78,WNW,300,0.0,0.0,97,0.00,,,0.24,LWC V2.00 B2112,2013-02-17 02:04:00,
2013-02-16 21:09:00,31.5,30.7,29.78,West,278,0.0,2.0,97,0.00,,,0.24,LWC V2.00 B2112,2013-02-17 02:09:00,
2013-02-16 21:14:00,31.3,30.5,29.78,WNW,282,0.0,0.0,97,0.00,,,0.24,LWC V2.00 B2112,2013-02-17 02:14:00,
2013-02-16 21:19:00,31.3,30.5,29.78,WNW,295,0.0,3.0,97,0.00,,,0.24,LWC V2.00 B2112,2013-02-17 02:19:00,
2013-02-16 21:24:00,31.5,30.7,29.79,WNW,295,0.0,0.0,97,0.00,,,0.24,LWC V2.00 B2112,2013-02-17 02:24:00,
2013-02-16 21:29:00,31.3,30.5,29.79,NNW,348,0.0,0.0,97,0.00,,,0.24,LWC V2.00 B2112,2013-02-17 02:29:00,
2013-02-16 21:34:00,31.3,30.5,29.79,NW,312,0.0,1.0,97,0.00,,,0.24,LWC V2.00 B2112,2013-02-17 02:34:00,
2013-02-16 21:39:00,31.3,30.3,29.79,WNW,293,0.0,0.0,96,0.00,,,0.24,LWC V2.00 B2112,2013-02-17 02:39:00,
2013-02-16 21:44:00,31.2,30.2,29.79,NW,304,0.0,0.0,96,0.00,,,0.24,LWC V2.00 B2112,2013-02-17 02:44:00,
2013-02-16 21:49:00,31.2,30.2,29.79,WNW,285,0.0,4.0,96,0.00,,,0.24,LWC V2.00 B2112,2013-02-17 02:49:00,
2013-02-16 21:54:00,31.2,30.2,29.79,WNW,285,0.0,0.0,96,0.00,,,0.24,LWC V2.00 B2112,2013-02-17 02:54:00,
2013-02-16 21:59:00,31.0,30.0,29.79,West,281,0.0,0.0,96,0.00,,,0.24,LWC V2.00 B2112,2013-02-17 02:59:00,
2013-02-16 22:04:00,31.0,30.0,29.79,WNW,302,0.0,0.0,96,0.00,,,0.24,LWC V2.00 B2112,2013-02-17 03:04:00,
2013-02-16 22:14:00,31.0,30.0,29.80,West,281,0.0,0.0,96,0.00,,,0.24,LWC V2.00 B2112,2013-02-17 03:14:00,
2013-02-16 22:19:00,31.0,30.0,29.80,West,281,0.0,0.0,96,0.00,,,0.24,LWC V2.00 B2112,2013-02-17 03:19:00,
2013-02-16 22:24:00,31.0,30.0,29.81,West,281,0.0,0.0,96,0.00,,,0.24,LWC V2.00 B2112,2013-02-17 03:24:00,
2013-02-16 22:29:00,31.0,30.0,29.81,West,281,0.0,0.0,96,0.00,,,0.24,LWC V2.00 B2112,2013-02-17 03:29:00,
2013-02-16 22:34:00,31.0,30.0,29.81,West,281,0.0,0.0,96,0.00,,,0.24,LWC V2.00 B2112,2013-02-17 03:34:00,
2013-02-16 22:39:00,31.0,30.0,29.80,NNW,339,0.0,1.0,96,0.00,,,0.24,LWC V2.00 B2112,2013-02-17 03:39:00,
2013-02-16 22:44:00,30.7,29.7,29.80,WNW,286,0.0,0.0,96,0.00,,,0.24,LWC V2.00 B2112,2013-02-17 03:44:00,
2013-02-16 22:49:00,30.6,29.6,29.80,NNW,341,0.0,4.0,96,0.00,,,0.24,LWC V2.00 B2112,2013-02-17 03:49:00,
2013-02-16 22:54:00,30.4,29.4,29.81,NW,310,4.0,6.0,96,0.00,,,0.24,LWC V2.00 B2112,2013-02-17 03:54:00,
2013-02-16 22:59:00,30.1,29.1,29.81,North,352,0.0,5.0,96,0.00,,,0.24,LWC V2.00 B2112,2013-02-17 03:59:00,
2013-02-16 23:04:00,29.8,28.8,29.81,NNE,17,0.0,2.0,96,0.00,,,0.24,LWC V2.00 B2112,2013-02-17 04:04:00,
2013-02-16 23:09:00,29.7,28.4,29.81,North,349,0.0,0.0,95,0.00,,,0.24,LWC V2.00 B2112,2013-02-17 04:09:00,
2013-02-16 23:14:00,29.5,28.2,29.81,NNW,345,0.0,0.0,95,0.00,,,0.24,LWC V2.00 B2112,2013-02-17 04:14:00,
2013-02-16 23:19:00,29.5,28.2,29.81,NW,324,0.0,0.0,95,0.00,,,0.24,LWC V2.00 B2112,2013-02-17 04:19:00,
2013-02-16 23:24:00,29.4,28.1,29.81,NW,313,0.0,1.0,95,0.00,,,0.24,LWC V2.00 B2112,2013-02-17 04:24:00,
2013-02-16 23:29:00,29.4,28.1,29.81,NNE,22,0.0,0.0,95,0.00,,,0.24,LWC V2.00 B2112,2013-02-17 04:29:00,
2013-02-16 23:34:00,29.4,28.1,29.81,NW,319,0.0,0.0,95,0.00,,,0.24,LWC V2.00 B2112,2013-02-17 04:34:00,
2013-02-16 23:39:00,29.4,28.1,29.81,NW,319,0.0,0.0,95,0.00,,,0.24,LWC V2.00 B2112,2013-02-17 04:39:00,
2013-02-16 23:44:00,29.4,27.9,29.81,WNW,295,0.0,0.0,94,0.00,,,0.24,LWC V2.00 B2112,2013-02-17 04:44:00,
2013-02-16 23:49:00,29.4,27.9,29.81,WNW,295,0.0,0.0,94,0.00,,,0.24,LWC V2.00 B2112,2013-02-17 04:49:00,
2013-02-16 23:54:00,29.4,28.1,29.81,WNW,295,0.0,0.0,95,0.00,,,0.24,LWC V2.00 B2112,2013-02-17 04:54:00,
2013-02-16 23:59:00,29.4,28.1,29.81,WNW,295,0.0,0.0,95,0.00,,,0.24,LWC V2.00 B2112,2013-02-17 04:59:00,